Latest Weather Observations for Horn Island

IDQ60801

Issued at 1:05 pm EST Wednesday 17 September 2014 (issued every 30 minutes, with the page automatically refreshed every 10 minutes)

About weather observations | Map of weather stations | Latest weather observations for QLD | Other Formats
Station Details ID: 027058 Name: HORN ISLAND Lat: -10.58 Lon: 142.29 Height: 4.0 m
Data from the previous 72 hours. | See also: Recent months at Horn Island
Date/Time
EST
Temp
°C
App
Temp
°C
Dew
Point
Rel
Hum
%
Delta-T
°C
Wind Press
QNH
hPa
Press
MSL
hPa
Rain
since 9 am
mm
Dir
 
Spd
km/h
Gust
km/h
Spd
kts
Gust
kts
17/01:00pm 28.2 25.4 19.1 57 5.9 ESE 32 41 17 22 1013.6 - 0.0
17/12:30pm 27.9 25.1 19.1 58 5.7 ESE 32 41 17 22 1013.9 - 0.0
17/12:00pm 28.5 26.4 19.7 59 5.7 ESE 30 43 16 23 1014.5 1014.5 0.0
17/11:30am 28.7 26.4 20.2 60 5.6 E 32 41 17 22 1014.7 - 0.0
17/11:00am 27.6 24.9 19.7 62 5.1 E 33 41 18 22 1015.0 - 0.0
17/10:30am 27.7 26.2 19.5 61 5.3 ESE 26 35 14 19 1015.1 - 0.0
17/10:00am 27.9 26.2 19.9 61 5.2 ESE 28 35 15 19 1015.1 - 0.0
17/09:30am 26.5 23.9 19.4 65 4.6 ESE 32 43 17 23 1015.2 - 0.0
17/09:00am 26.5 25.0 19.4 65 4.6 ESE 26 37 14 20 1015.3 1015.3 0.0
17/08:30am 25.8 24.6 19.2 67 4.2 ESE 24 32 13 17 1015.1 - 0.0
17/08:00am 25.6 25.5 19.9 70 3.7 ESE 20 30 11 16 1014.8 - 0.0
17/07:30am 24.7 23.9 20.0 75 3.0 ESE 24 33 13 18 1014.2 - 0.0
17/07:00am 24.1 23.6 20.0 78 2.6 ESE 22 30 12 16 1013.8 - 0.0
17/06:30am 23.7 23.8 20.0 80 2.4 ESE 19 24 10 13 1013.4 - 0.0
17/06:00am 23.7 23.5 19.8 79 2.5 ESE 20 30 11 16 1013.0 1013.0 0.0
17/05:30am 23.7 23.1 19.8 79 2.5 ESE 22 30 12 16 1012.5 - 0.0
17/05:00am 23.5 23.9 19.8 80 2.4 ESE 17 24 9 13 1012.3 - 0.0
17/04:30am 23.5 23.9 19.8 80 2.4 ESE 17 22 9 12 1012.1 - 0.0
17/04:00am 23.5 23.9 19.8 80 2.4 ESE 17 20 9 11 1012.2 - 0.0
17/03:30am 23.6 23.9 19.7 79 2.5 SE 17 22 9 12 1012.2 - 0.0
17/03:00am 23.6 23.7 19.9 80 2.4 SE 19 26 10 14 1012.3 1012.3 0.0
17/02:30am 23.9 23.8 20.0 79 2.5 SE 20 28 11 15 1012.4 - 0.0
17/02:00am 23.9 23.7 19.8 78 2.6 SE 20 26 11 14 1012.5 - 0.0
17/01:30am 24.0 23.4 19.7 77 2.8 ESE 22 28 12 15 1012.8 - 0.0
17/01:00am 24.2 23.7 19.9 77 2.8 ESE 22 32 12 17 1013.0 - 0.0
17/12:30am 24.5 23.5 19.6 74 3.2 ESE 24 33 13 18 1013.1 - 0.0
17/12:00am 24.5 23.2 19.8 75 3.0 ESE 26 39 14 21 1013.4 1013.4 0.0
 
Date/Time
EST
Temp
°C
App
Temp
°C
Dew
Point
Rel
Hum
%
Delta-T
°C
Wind Press
QNH
hPa
Press
MSL
hPa
Rain
since 9 am
mm
Dir
 
Spd
km/h
Gust
km/h
Spd
kts
Gust
kts
16/11:30pm 24.4 22.7 19.7 75 3.0 ESE 28 37 15 20 1013.4 - 0.0
16/11:00pm 24.6 22.9 19.9 75 3.0 ESE 28 39 15 21 1013.4 - 0.0
16/10:30pm 24.4 23.1 19.9 76 2.9 ESE 26 37 14 20 1013.4 - 0.0
16/10:00pm 24.5 23.7 20.0 76 2.9 ESE 24 39 13 21 1013.4 - 0.0
16/09:30pm 24.5 22.7 19.6 74 3.2 ESE 28 39 15 21 1013.2 - 0.0
16/09:00pm 24.4 22.6 19.5 74 3.1 ESE 28 39 15 21 1012.9 1012.9 0.0
16/08:30pm 24.5 23.1 19.6 74 3.2 ESE 26 43 14 23 1012.6 - 0.0
16/08:00pm 24.5 22.9 19.3 73 3.3 ESE 26 37 14 20 1012.2 - 0.0
16/07:30pm 24.6 23.5 19.4 73 3.3 ESE 24 39 13 21 1011.9 - 0.0
16/07:00pm 24.8 22.9 19.4 72 3.5 ESE 28 37 15 20 1011.7 - 0.0
16/06:30pm 24.9 22.8 19.0 69 3.8 ESE 28 37 15 20 1011.4 - 0.0
16/06:00pm 25.4 23.2 18.8 67 4.2 ESE 28 43 15 23 1011.1 1011.1 0.0
16/05:30pm 26.0 23.7 19.4 67 4.3 ESE 30 41 16 22 1011.0 - 0.0
16/05:00pm 26.7 24.1 19.6 65 4.6 E 32 43 17 23 1010.9 - 0.0
16/04:30pm 27.2 24.1 18.8 60 5.4 ESE 33 43 18 23 1010.8 - 0.0
16/04:00pm 27.2 24.3 18.8 60 5.4 ESE 32 44 17 24 1010.7 - 0.0
16/03:30pm 27.4 24.5 19.2 61 5.3 E 33 48 18 26 1010.8 - 0.0
16/03:00pm 28.3 25.7 19.5 59 5.7 E 32 44 17 24 1011.0 1011.0 0.0
16/02:30pm 28.4 25.5 19.3 57 5.9 ESE 33 44 18 24 1011.3 - 0.0
16/02:00pm 28.9 25.9 19.8 58 5.9 E 35 44 19 24 1011.6 - 0.0
16/01:30pm 28.1 25.5 19.6 60 5.5 E 32 43 17 23 1012.0 - 0.0
16/01:00pm 28.8 26.8 20.0 59 5.8 E 30 41 16 22 1012.3 - 0.0
16/12:30pm 27.9 25.6 19.4 60 5.5 E 30 44 16 24 1012.6 - 0.0
16/12:00pm 28.3 25.9 19.2 57 5.9 ESE 30 39 16 21 1013.0 1013.0 0.0
16/11:30am 28.3 26.1 19.5 59 5.7 ESE 30 43 16 23 1013.4 - 0.0
16/11:00am 28.7 26.7 19.9 59 5.8 ESE 30 43 16 23 1013.8 - 0.0
16/10:30am 28.0 26.4 20.0 61 5.2 E 28 43 15 23 1014.1 - 0.0
16/10:00am 26.8 24.2 19.4 64 4.8 E 32 43 17 23 1014.2 - 0.0
16/09:30am 27.2 25.1 20.5 67 4.4 E 32 41 17 22 1014.4 - 0.0
16/09:00am 26.4 25.2 20.0 68 4.2 ESE 26 33 14 18 1014.3 1014.3 0.0
16/08:30am 25.6 24.3 19.9 70 3.7 ESE 26 35 14 19 1014.1 - 0.0
16/08:00am 25.1 24.6 19.9 73 3.4 ESE 22 30 12 16 1013.9 - 0.0
16/07:30am 24.5 24.3 19.8 75 3.0 ESE 20 30 11 16 1013.5 - 0.0
16/07:00am 24.2 24.4 20.1 78 2.7 ESE 19 24 10 13 1013.2 - 0.0
16/06:30am 23.8 23.6 19.7 78 2.6 ESE 20 26 11 14 1013.0 - 0.0
16/06:00am 23.8 23.6 19.7 78 2.6 ESE 20 28 11 15 1012.7 1012.7 0.0
16/05:30am 23.9 23.8 20.0 79 2.5 ESE 20 30 11 16 1012.4 - 0.0
16/05:00am 23.8 23.6 19.7 78 2.6 ESE 20 30 11 16 1012.2 - 0.0
16/04:30am 23.8 23.6 19.7 78 2.6 ESE 20 26 11 14 1012.2 - 0.0
16/04:00am 23.8 23.8 19.7 78 2.6 ESE 19 28 10 15 1012.1 - 0.0
16/03:30am 23.7 23.4 19.6 78 2.6 ESE 20 28 11 15 1012.1 - 0.0
16/03:00am 23.6 23.8 19.3 77 2.7 ESE 17 24 9 13 1012.1 1012.1 0.0
16/02:30am 23.7 23.5 19.4 77 2.8 ESE 19 26 10 14 1012.1 - 0.0
16/02:00am 23.9 23.7 19.4 76 2.9 ESE 19 30 10 16 1012.3 - 0.0
16/01:30am 23.9 23.5 19.4 76 2.9 ESE 20 28 11 15 1012.6 - 0.0
16/01:00am 23.9 23.7 19.4 76 2.9 ESE 19 26 10 14 1012.9 - 0.0
16/12:30am 24.0 23.7 19.5 76 2.9 ESE 20 28 11 15 1013.0 - 0.0
16/12:00am 24.0 23.7 19.5 76 2.9 ESE 20 32 11 17 1013.1 1013.1 0.0
 
Date/Time
EST
Temp
°C
App
Temp
°C
Dew
Point
Rel
Hum
%
Delta-T
°C
Wind Press
QNH
hPa
Press
MSL
hPa
Rain
since 9 am
mm
Dir
 
Spd
km/h
Gust
km/h
Spd
kts
Gust
kts
15/11:30pm 24.1 23.7 19.4 75 3.0 ESE 20 30 11 16 1013.3 - 0.0
15/11:00pm 24.2 24.0 19.3 74 3.1 ESE 19 24 10 13 1013.4 - 0.0
15/10:30pm 24.3 23.2 19.4 74 3.1 ESE 24 33 13 18 1013.3 - 0.0
15/10:00pm 24.4 22.7 19.0 72 3.4 ESE 26 35 14 19 1013.1 - 0.0
15/09:30pm 24.3 23.3 18.9 72 3.4 ESE 22 30 12 16 1013.0 - 0.0
15/09:00pm 24.3 23.3 18.9 72 3.4 ESE 22 33 12 18 1012.8 1012.8 0.0
15/08:30pm 24.4 23.6 19.2 73 3.3 ESE 22 30 12 16 1012.6 - 0.0
15/08:00pm 24.5 22.9 19.1 72 3.4 ESE 26 39 14 21 1012.2 - 0.0
15/07:30pm 24.6 22.2 19.2 72 3.5 ESE 30 37 16 20 1011.7 - 0.0
15/07:00pm 24.8 22.4 19.0 70 3.7 SE 30 41 16 22 1011.6 - 0.0
15/06:30pm 25.0 22.9 18.9 69 3.9 ESE 28 39 15 21 1011.3 - 0.0
15/06:00pm 25.5 22.9 18.7 66 4.3 ESE 30 41 16 22 1011.1 1011.1 0.0
15/05:30pm 26.1 23.6 18.8 64 4.7 ESE 30 46 16 25 1010.8 - 0.0
15/05:00pm 27.0 24.5 18.8 60 5.3 ESE 30 39 16 21 1010.6 - 0.0
15/04:30pm 27.6 25.2 19.1 59 5.5 ESE 30 41 16 22 1010.6 - 0.0
15/04:00pm 27.3 24.4 18.9 60 5.4 ESE 32 43 17 23 1010.5 - 0.0
15/03:30pm 27.9 25.3 19.4 60 5.5 ESE 32 43 17 23 1010.7 - 0.0
15/03:00pm 27.4 24.1 18.4 58 5.7 ESE 33 44 18 24 1010.8 1010.8 0.0
15/02:30pm 28.4 25.7 19.3 57 5.9 ESE 32 44 17 24 1011.0 - 0.0
15/02:00pm 27.9 24.8 18.9 58 5.8 ESE 33 43 18 23 1011.2 - 0.0
15/01:30pm 28.0 25.0 18.7 57 6.0 ESE 32 44 17 24 1011.7 - 0.0
15/01:00pm 28.3 25.6 19.2 57 5.9 ESE 32 44 17 24 1012.0 - 0.0
15/12:30pm 28.0 24.5 18.7 57 6.0 ESE 35 43 19 23 1012.5 - 0.0
15/12:00pm 28.8 26.3 19.7 58 5.9 ESE 32 44 17 24 1013.1 1013.1 0.0
15/11:30am 28.0 25.2 19.0 58 5.8 ESE 32 43 17 23 1013.4 - 0.0
15/11:00am 27.6 24.7 18.9 59 5.6 ESE 32 41 17 22 1013.7 - 0.0
15/10:30am 28.0 25.6 19.2 58 5.7 ESE 30 44 16 24 1013.8 - 0.0
15/10:00am 27.7 25.0 19.2 60 5.5 ESE 32 39 17 21 1014.0 - 0.0
15/09:30am 27.2 24.6 19.5 62 5.0 ESE 32 43 17 23 1014.0 - 0.0
15/09:00am 27.0 24.4 19.4 63 4.9 ESE 32 44 17 24 1013.8 1013.8 0.0
15/08:30am 26.4 24.3 19.8 67 4.3 ESE 30 43 16 23 1013.5 - 0.0
15/08:00am 25.8 23.7 19.0 66 4.4 ESE 28 35 15 19 1013.2 - 0.0
15/07:30am 25.3 23.6 19.7 71 3.6 ESE 28 35 15 19 1013.0 - 0.0
15/07:00am 24.5 22.7 19.6 74 3.2 ESE 28 39 15 21 1012.5 - 0.0
15/06:30am 24.3 22.5 19.6 75 3.0 ESE 28 39 15 21 1012.2 - 0.0
15/06:00am 24.1 23.1 19.6 76 2.9 SE 24 37 13 20 1011.8 1011.8 0.0
15/05:30am 24.2 23.3 19.9 77 2.8 ESE 24 32 13 17 1011.5 - 0.0
15/05:00am 24.2 23.6 19.7 76 2.9 ESE 22 35 12 19 1011.2 - 0.0
15/04:30am 24.2 23.5 19.5 75 3.0 ESE 22 33 12 18 1011.2 - 0.0
15/04:00am 24.2 22.2 19.1 73 3.3 SE 28 41 15 22 1011.2 - 0.0
15/03:30am 24.3 22.2 18.9 72 3.4 ESE 28 37 15 20 1011.3 - 0.0
15/03:00am 24.2 23.4 19.3 74 3.1 ESE 22 33 12 18 1011.4 1011.4 0.0
15/02:30am 24.3 21.9 19.1 73 3.3 ESE 30 43 16 23 1011.5 - 0.0
15/02:00am 24.3 22.7 19.1 73 3.3 ESE 26 39 14 21 1011.7 - 0.0
15/01:30am 24.4 22.6 18.8 71 3.6 ESE 26 37 14 20 1012.0 - 0.0
15/01:00am 24.4 22.7 19.0 72 3.4 ESE 26 35 14 19 1012.3 - 0.0
15/12:30am 24.4 22.8 19.2 73 3.3 SE 26 37 14 20 1012.8 - 0.0
15/12:00am 24.4 22.8 19.2 73 3.3 SE 26 35 14 19 1013.0 1013.0 0.0
 
Date/Time
EST
Temp
°C
App
Temp
°C
Dew
Point
Rel
Hum
%
Delta-T
°C
Wind Press
QNH
hPa
Press
MSL
hPa
Rain
since 9 am
mm
Dir
 
Spd
km/h
Gust
km/h
Spd
kts
Gust
kts
14/11:30pm 24.7 23.8 19.8 74 3.2 ESE 24 33 13 18 1013.1 - 0.0
14/11:00pm 24.7 22.9 19.5 73 3.3 SE 28 41 15 22 1013.4 - 0.0
14/10:30pm 24.7 24.1 19.8 74 3.2 SE 22 32 12 17 1013.2 - 0.0
14/10:00pm 24.9 23.3 19.3 71 3.6 SE 26 35 14 19 1013.2 - 0.0
14/09:30pm 24.9 22.7 19.5 72 3.5 SE 30 43 16 23 1013.2 - 0.0
14/09:00pm 24.9 23.1 19.5 72 3.5 SE 28 39 15 21 1013.0 1013.0 0.0
14/08:30pm 25.0 23.9 19.4 71 3.6 SE 24 33 13 18 1012.9 - 0.0
14/08:00pm 24.7 23.3 18.9 70 3.7 SE 24 33 13 18 1012.6 - 0.0
14/07:30pm 24.8 23.0 18.7 69 3.9 SE 26 39 14 21 1012.5 - 0.0
14/07:00pm 24.9 22.2 19.3 71 3.6 SE 32 48 17 26 1012.1 - 0.0
14/06:30pm 25.1 22.7 19.2 70 3.8 ESE 30 46 16 25 1011.7 - 0.0
14/06:00pm 25.7 22.9 19.1 67 4.2 ESE 32 41 17 22 1011.5 1011.5 0.0
14/05:30pm 26.1 23.4 19.2 65 4.4 ESE 32 44 17 24 1011.1 - 0.0
14/05:00pm 27.0 23.9 18.8 60 5.3 ESE 33 46 18 25 1011.1 - 0.0
14/04:30pm 27.0 23.8 18.6 60 5.4 ESE 33 44 18 24 1011.0 - 0.0
14/04:00pm 27.5 24.1 19.0 59 5.5 ESE 35 46 19 25 1010.9 - 0.0
14/03:30pm 28.1 24.7 19.1 58 5.8 ESE 35 46 19 25 1011.1 - 0.0
14/03:05pm 28.8 25.8 18.6 54 6.6 ESE 32 50 17 27 1011.2 - 0.0
14/03:00pm 29.0 26.0 19.0 54 6.5 ESE 33 50 18 27 1011.3 1011.3 0.0
14/02:56pm 28.2 25.2 18.6 56 6.2 ESE 32 50 17 27 1011.2 - 0.0
14/02:30pm 28.5 24.9 18.6 55 6.4 ESE 35 46 19 25 1011.4 - 0.0
14/02:00pm 28.5 25.5 19.1 56 6.1 ESE 33 46 18 25 1011.7 - 0.0
14/01:30pm 28.5 25.4 19.7 59 5.7 ESE 35 46 19 25 1012.0 - 0.0

Other Formats:

Comma delimited format used in spreadsheet applications
http://www.bom.gov.au/fwo/IDQ60801/IDQ60801.94174.axf

JavaScript Object Notation format (JSON) in row-major order
http://www.bom.gov.au/fwo/IDQ60801/IDQ60801.94174.json